Angoon, Alaska
Current Conditions -  °F | °C
As of 10:56 AM on Monday 24 Nov 2014 (Local Time) from PAGN Reporting Station
Light Rain Light Rain  
Wind Chill: 38°   Ceiling: 2300
Heat Index: 38°   Visibility: 4mi
Dew Point: 36°   Wind: 0mph
Humidity: 93%   Direction: NA
Pressure: 29.76"   Gusts: NA
Location:  57.5°N, 134.59°W
Report Text: PAGN 241956Z AUTO 00000KT 4SM -RA BR FEW016 BKN023 BKN031 03/02 A2976 RMK AO2 TSNO T00330022 P0003 SLP081 $
Loading
Personal Weather Stations






























Interactive Weather Map New forecast layout! Learn more

10-Day Weather Forecast

Advertisements
Track Severe Weather on mobile